Transformer Ol — 3EZY5 — position and weather

sailwx.info

Track history (hours):
 
Tides and Currents Weather Stations Pressure Air Temp Water Temp Dewpoint Dewpoint Depression Visibility Wind Speed Wind Dir Waves Ship Positions

Transformer Ol

Last reported at 2014-Jul-30 02:29 UTC. Time now 2014-Jul-30 13:09 UTC.
Position N 22°07' E 114°13'.

Length 169 m; draft 5.4 m.

Type: Cargo ship. MMSI: 372789000.

Date/timePositionNaut miles runAvg speedWind from/ knotsBaromVisibWave heightAir tempDewpointWater temp
2014-Jul-30 02:29N 22°07' E 114°13'1210.8
2014-Jul-30 01:22N 22°18' E 114°06'8 9.2
2014-Jul-30 00:31N 22°21' E 113°58'7 7.8
2014-Jul-29 23:34N 22°26' E 113°53'4 3.4
2014-Jul-29 22:20N 22°30' E 113°50'0 0.0
2014-Jul-29 21:14N 22°30' E 113°50'0 0.0
2014-Jul-29 20:26N 22°30' E 113°50'0 0.0
2014-Jul-29 19:26N 22°30' E 113°50'0 0.0
2014-Jul-29 18:32N 22°30' E 113°50'0 0.1
2014-Jul-29 17:14N 22°30' E 113°50'0 0.1
2014-Jul-29 16:14N 22°30' E 113°50'0 0.0
2014-Jul-29 15:32N 22°30' E 113°50'0 0.0
2014-Jul-29 14:32N 22°30' E 113°50'0 0.0
2014-Jul-29 13:32N 22°30' E 113°50'0 0.2
2014-Jul-29 12:20N 22°30' E 113°50'0 0.0
2014-Jul-29 11:14N 22°30' E 113°50'0 0.0
2014-Jul-29 10:14N 22°30' E 113°50'0 0.0
2014-Jul-29 09:32N 22°30' E 113°50'0 0.0
2014-Jul-29 08:32N 22°30' E 113°50'0 0.0
2014-Jul-29 07:26N 22°30' E 113°50'0 0.0
2014-Jul-29 06:26N 22°30' E 113°50'0 0.1
2014-Jul-29 05:10N 22°30' E 113°50'0 0.3
2014-Jul-29 04:32N 22°30' E 113°50'  
2014-Jul-22 11:17N 22°31' E 113°50'0 0.1
2014-Jul-22 08:23N 22°30' E 113°50'0 0.0
2014-Jul-22 05:17N 22°30' E 113°50'0 0.0
2014-Jul-22 04:11N 22°30' E 113°50'0 0.0
2014-Jul-22 01:11N 22°30' E 113°50'0 0.0
2014-Jul-21 23:17N 22°30' E 113°50'0 0.0
2014-Jul-21 22:29N 22°30' E 113°50'0 0.0
2014-Jul-21 16:29N 22°30' E 113°50'0 0.0
2014-Jul-21 15:11N 22°30' E 113°50'0 0.0
2014-Jul-21 14:29N 22°30' E 113°50'0 0.0
2014-Jul-21 13:29N 22°30' E 113°50'0 0.0
2014-Jul-21 06:05N 22°30' E 113°50'0 0.0
2014-Jul-20 06:05N 22°30' E 113°50'1 1.0
2014-Jul-20 05:25N 22°30' E 113°51'7 8.0
2014-Jul-20 04:33N 22°24' E 113°54'1110.1
2014-Jul-20 03:28N 22°20' E 114°05'  
Track history (hours):
 
Tides and Currents Weather Stations Pressure Air Temp Water Temp Dewpoint Dewpoint Depression Visibility Wind Speed Wind Dir Waves Ship Positions

Transformer Ol

Last reported at 2014-Jul-30 02:29 UTC. Time now 2014-Jul-30 13:09 UTC.
Position N 22°07' E 114°13'.

Length 169 m; draft 5.4 m.

Type: Cargo ship. MMSI: 372789000.

Date/timePositionNaut miles runAvg speedWind from/ knotsBaromVisibWave heightAir tempDewpointWater temp
2014-Jul-30 02:29N 22°07' E 114°13'1210.8
2014-Jul-30 01:22N 22°18' E 114°06'8 9.2
2014-Jul-30 00:31N 22°21' E 113°58'7 7.8
2014-Jul-29 23:34N 22°26' E 113°53'4 3.4
2014-Jul-29 22:20N 22°30' E 113°50'0 0.0
2014-Jul-29 21:14N 22°30' E 113°50'0 0.0
2014-Jul-29 20:26N 22°30' E 113°50'0 0.0
2014-Jul-29 19:26N 22°30' E 113°50'0 0.0
2014-Jul-29 18:32N 22°30' E 113°50'0 0.1
2014-Jul-29 17:14N 22°30' E 113°50'0 0.1
2014-Jul-29 16:14N 22°30' E 113°50'0 0.0
2014-Jul-29 15:32N 22°30' E 113°50'0 0.0
2014-Jul-29 14:32N 22°30' E 113°50'0 0.0
2014-Jul-29 13:32N 22°30' E 113°50'0 0.2
2014-Jul-29 12:20N 22°30' E 113°50'0 0.0
2014-Jul-29 11:14N 22°30' E 113°50'0 0.0
2014-Jul-29 10:14N 22°30' E 113°50'0 0.0
2014-Jul-29 09:32N 22°30' E 113°50'0 0.0
2014-Jul-29 08:32N 22°30' E 113°50'0 0.0
2014-Jul-29 07:26N 22°30' E 113°50'0 0.0
2014-Jul-29 06:26N 22°30' E 113°50'0 0.1
2014-Jul-29 05:10N 22°30' E 113°50'0 0.3
2014-Jul-29 04:32N 22°30' E 113°50'  
2014-Jul-22 11:17N 22°31' E 113°50'0 0.1
2014-Jul-22 08:23N 22°30' E 113°50'0 0.0
2014-Jul-22 05:17N 22°30' E 113°50'0 0.0
2014-Jul-22 04:11N 22°30' E 113°50'0 0.0
2014-Jul-22 01:11N 22°30' E 113°50'0 0.0
2014-Jul-21 23:17N 22°30' E 113°50'0 0.0
2014-Jul-21 22:29N 22°30' E 113°50'0 0.0
2014-Jul-21 16:29N 22°30' E 113°50'0 0.0
2014-Jul-21 15:11N 22°30' E 113°50'0 0.0
2014-Jul-21 14:29N 22°30' E 113°50'0 0.0
2014-Jul-21 13:29N 22°30' E 113°50'0 0.0
2014-Jul-21 06:05N 22°30' E 113°50'0 0.0
2014-Jul-20 06:05N 22°30' E 113°50'1 1.0
2014-Jul-20 05:25N 22°30' E 113°51'7 8.0
2014-Jul-20 04:33N 22°24' E 113°54'1110.1
2014-Jul-20 03:28N 22°20' E 114°05'  

Dump ship's entire track history